createdAt,value
2022-08-07T00:00:55.705Z,50.20
2022-08-07T00:03:28.223Z,50.00
2022-08-07T00:06:08.193Z,50.00
2022-08-07T00:08:37.374Z,50.40
2022-08-07T00:11:13.779Z,50.70
2022-08-07T00:13:48.149Z,50.20
2022-08-07T00:16:17.522Z,50.20
2022-08-07T00:18:49.884Z,49.50
2022-08-07T00:21:56.634Z,49.90
2022-08-07T00:24:06.792Z,49.80
2022-08-07T00:26:49.520Z,49.50
2022-08-07T00:29:26.604Z,49.20
2022-08-07T00:32:00.166Z,49.00
2022-08-07T00:34:28.744Z,49.00
2022-08-07T00:36:57.680Z,49.10
2022-08-07T00:39:25.642Z,49.40
2022-08-07T00:42:01.742Z,50.50
2022-08-07T00:44:33.170Z,50.50
2022-08-07T00:47:01.717Z,50.70
2022-08-07T00:50:19.780Z,51.00
2022-08-07T00:52:20.057Z,50.80
2022-08-07T00:54:53.729Z,50.70
2022-08-07T00:57:25.139Z,50.60
2022-08-07T00:59:54.305Z,50.70
2022-08-07T01:02:28.452Z,51.00
2022-08-07T01:04:59.326Z,50.90
2022-08-07T01:07:29.629Z,50.80
2022-08-07T01:10:05.862Z,50.90
2022-08-07T01:12:53.381Z,50.60
2022-08-07T01:15:35.634Z,50.90
2022-08-07T01:18:17.473Z,51.00
2022-08-07T01:20:59.447Z,51.20
2022-08-07T01:23:38.538Z,51.40
2022-08-07T01:26:12.215Z,51.20
2022-08-07T01:28:46.240Z,51.10
2022-08-07T01:31:27.893Z,50.80
2022-08-07T01:34:10.629Z,50.10
2022-08-07T01:36:44.172Z,50.10
2022-08-07T01:39:20.903Z,50.00
2022-08-07T01:42:36.842Z,49.80
2022-08-07T01:44:48.365Z,49.80
2022-08-07T01:48:20.824Z,50.00
2022-08-07T01:50:09.308Z,49.80
2022-08-07T01:52:49.446Z,49.70
2022-08-07T01:55:27.632Z,49.60
2022-08-07T01:58:05.456Z,49.70
2022-08-07T02:01:10.181Z,49.40
2022-08-07T02:03:50.133Z,49.40
2022-08-07T02:06:31.458Z,49.60
2022-08-07T02:09:06.633Z,49.30
2022-08-07T02:12:02.820Z,49.30
2022-08-07T02:14:36.366Z,49.20
2022-08-07T02:17:24.746Z,49.10
2022-08-07T02:20:05.372Z,49.30
2022-08-07T02:22:41.424Z,49.10
2022-08-07T02:25:18.248Z,49.30
2022-08-07T02:27:59.720Z,49.50
2022-08-07T02:30:30.749Z,49.50
2022-08-07T02:33:09.472Z,49.70
2022-08-07T02:36:29.914Z,49.70
2022-08-07T02:38:36.331Z,49.60
2022-08-07T02:41:07.920Z,49.60
2022-08-07T02:43:43.547Z,49.50
2022-08-07T02:46:20.517Z,49.60
2022-08-07T02:48:54.707Z,49.60
2022-08-07T02:51:42.206Z,49.90
2022-08-07T02:54:16.193Z,49.80
2022-08-07T02:56:47.538Z,49.80
2022-08-07T02:59:24.144Z,49.80
2022-08-07T03:01:58.078Z,49.80
2022-08-07T03:04:31.259Z,49.60
2022-08-07T03:07:07.235Z,49.80
2022-08-07T03:09:43.699Z,50.10
2022-08-07T03:12:21.916Z,50.10
2022-08-07T03:14:56.888Z,50.60
2022-08-07T03:17:25.900Z,50.90
2022-08-07T03:19:59.326Z,50.90
2022-08-07T03:22:30.726Z,50.70
2022-08-07T03:25:00.775Z,51.10
2022-08-07T03:27:58.752Z,51.70
2022-08-07T03:30:26.781Z,51.70
2022-08-07T03:32:58.263Z,51.50
2022-08-07T03:35:43.584Z,51.10
2022-08-07T03:38:21.279Z,50.90
2022-08-07T03:40:53.856Z,50.80
2022-08-07T03:43:26.436Z,50.90
2022-08-07T03:45:56.655Z,51.10
2022-08-07T03:48:29.806Z,51.40
2022-08-07T03:50:59.158Z,51.70
2022-08-07T03:54:15.158Z,51.80
2022-08-07T03:56:33.175Z,51.60
2022-08-07T03:59:12.997Z,51.10
2022-08-07T04:01:50.354Z,51.00
2022-08-07T04:04:23.410Z,51.10
2022-08-07T04:06:55.290Z,51.40
2022-08-07T04:09:25.580Z,51.00
2022-08-07T04:12:23.771Z,51.00
2022-08-07T04:14:57.965Z,51.10
2022-08-07T04:18:56.413Z,50.90
2022-08-07T04:20:19.494Z,50.50
2022-08-07T04:22:53.426Z,50.30
2022-08-07T04:25:31.238Z,50.00
2022-08-07T04:28:08.116Z,50.10
2022-08-07T04:30:43.637Z,49.90
2022-08-07T04:33:28.199Z,50.10
2022-08-07T04:35:57.856Z,50.40
2022-08-07T04:38:28.923Z,50.20
2022-08-07T04:40:58.496Z,50.00
2022-08-07T04:44:12.498Z,50.60
2022-08-07T04:46:40.026Z,50.20
2022-08-07T04:49:38.423Z,50.00
2022-08-07T04:52:15.387Z,49.50
2022-08-07T04:54:58.522Z,49.30
2022-08-07T04:58:12.100Z,50.10
2022-08-07T05:00:32.435Z,49.90
2022-08-07T05:03:31.125Z,50.00
2022-08-07T05:06:03.341Z,48.90
2022-08-07T05:09:02.178Z,48.70
2022-08-07T05:11:57.087Z,48.20
2022-08-07T05:14:52.045Z,48.30
2022-08-07T05:17:52.095Z,48.00
2022-08-07T05:20:14.530Z,48.30
2022-08-07T05:22:50.625Z,48.60
2022-08-07T05:25:37.420Z,48.60
2022-08-07T05:28:20.503Z,48.20
2022-08-07T05:30:52.394Z,48.20
2022-08-07T05:33:22.436Z,48.10
2022-08-07T05:35:52.681Z,48.10
2022-08-07T05:39:00.168Z,48.30
2022-08-07T05:41:14.557Z,48.10
2022-08-07T05:44:07.791Z,48.40
2022-08-07T05:46:40.320Z,48.40
2022-08-07T05:49:13.071Z,48.60
2022-08-07T05:51:47.132Z,48.80
2022-08-07T05:54:44.555Z,48.70
2022-08-07T05:57:10.834Z,48.30
2022-08-07T05:59:57.142Z,48.20
2022-08-07T06:02:32.030Z,48.40
2022-08-07T06:05:10.912Z,48.10
2022-08-07T06:08:13.498Z,48.00
2022-08-07T06:10:36.327Z,48.10
2022-08-07T06:13:06.029Z,48.10
2022-08-07T06:15:42.977Z,48.10
2022-08-07T06:18:20.800Z,47.70
2022-08-07T06:22:14.979Z,47.70
2022-08-07T06:24:38.526Z,47.80
2022-08-07T06:26:29.536Z,47.90
2022-08-07T06:29:01.111Z,48.00
2022-08-07T06:31:46.832Z,47.90
2022-08-07T06:34:20.813Z,47.90
2022-08-07T06:36:52.021Z,48.20
2022-08-07T06:40:12.955Z,48.70
2022-08-07T06:42:19.132Z,48.60
2022-08-07T06:45:11.531Z,47.70
2022-08-07T06:47:57.086Z,45.60
2022-08-07T06:50:30.659Z,45.00
2022-08-07T06:53:04.353Z,44.10
2022-08-07T06:55:54.129Z,43.20
2022-08-07T06:58:27.551Z,42.80
2022-08-07T07:01:03.491Z,41.70
2022-08-07T07:03:47.492Z,41.90
2022-08-07T07:06:24.006Z,42.10
2022-08-07T07:08:57.036Z,42.70
2022-08-07T07:12:09.646Z,43.10
2022-08-07T07:14:17.329Z,43.50
2022-08-07T07:16:50.607Z,43.20
2022-08-07T07:19:56.001Z,42.90
2022-08-07T07:22:34.198Z,42.90
2022-08-07T07:25:14.260Z,43.00
2022-08-07T07:27:58.460Z,42.40
2022-08-07T07:30:38.307Z,42.20
2022-08-07T07:33:11.642Z,41.50
2022-08-07T07:35:51.884Z,42.60
2022-08-07T07:38:33.540Z,43.10
2022-08-07T07:41:05.971Z,42.80
2022-08-07T07:43:47.842Z,42.00
2022-08-07T07:46:54.463Z,41.30
2022-08-07T07:50:33.101Z,41.40
2022-08-07T07:52:16.823Z,40.00
2022-08-07T07:54:51.133Z,37.60
2022-08-07T07:57:50.440Z,38.80
2022-08-07T08:00:20.682Z,38.30
2022-08-07T08:03:05.354Z,37.90
2022-08-07T08:05:51.157Z,38.70
2022-08-07T08:08:34.373Z,38.80
2022-08-07T08:11:16.600Z,38.20
2022-08-07T08:13:53.827Z,38.90
2022-08-07T08:16:29.890Z,38.80
2022-08-07T08:19:17.476Z,38.50
2022-08-07T08:22:07.864Z,38.10
2022-08-07T08:25:09.356Z,38.20
2022-08-07T08:27:56.028Z,38.60
2022-08-07T08:30:27.972Z,39.00
2022-08-07T08:33:10.620Z,39.40
2022-08-07T08:35:50.077Z,40.00
2022-08-07T08:38:29.324Z,40.30
2022-08-07T08:41:06.219Z,40.30
2022-08-07T08:43:56.155Z,40.80
2022-08-07T08:46:38.135Z,41.20
2022-08-07T08:49:14.095Z,39.90
2022-08-07T08:52:14.128Z,40.00
2022-08-07T08:54:48.054Z,39.60
2022-08-07T08:57:33.867Z,39.60
2022-08-07T09:00:07.514Z,40.50
2022-08-07T09:02:46.222Z,40.40
2022-08-07T09:05:37.723Z,40.00
2022-08-07T09:08:32.863Z,39.80
2022-08-07T09:11:14.075Z,39.00
2022-08-07T09:14:06.113Z,38.10
2022-08-07T09:16:45.690Z,38.70
2022-08-07T09:19:51.821Z,39.90
2022-08-07T09:24:33.528Z,39.10
2022-08-07T09:25:40.115Z,39.30
2022-08-07T09:30:01.924Z,39.00
2022-08-07T09:31:07.457Z,39.40
2022-08-07T09:33:57.915Z,37.70
2022-08-07T09:36:35.711Z,39.00
2022-08-07T09:39:55.125Z,37.90
2022-08-07T09:42:34.987Z,37.50
2022-08-07T09:47:25.075Z,38.20
2022-08-07T09:48:15.118Z,38.30
2022-08-07T09:50:59.407Z,38.80
2022-08-07T09:53:40.816Z,39.40
2022-08-07T09:56:37.527Z,38.60
2022-08-07T09:59:29.443Z,38.60
2022-08-07T10:02:34.665Z,38.20
2022-08-07T10:05:58.083Z,38.90
2022-08-07T10:08:49.663Z,38.20
2022-08-07T10:12:01.555Z,39.20
2022-08-07T10:14:55.462Z,39.30
2022-08-07T10:18:11.877Z,38.60
2022-08-07T10:20:50.200Z,37.70
2022-08-07T10:24:05.410Z,39.00
2022-08-07T10:26:52.966Z,38.70
2022-08-07T10:29:51.608Z,39.50
2022-08-07T10:32:53.261Z,38.80
2022-08-07T10:35:55.869Z,37.40
2022-08-07T10:38:35.846Z,37.10
2022-08-07T10:41:15.992Z,37.50
2022-08-07T10:44:12.144Z,37.80
2022-08-07T10:46:52.866Z,37.70
2022-08-07T10:49:49.218Z,37.60
2022-08-07T10:52:22.621Z,36.30
2022-08-07T10:55:27.050Z,36.70
2022-08-07T10:58:14.519Z,36.50
2022-08-07T11:00:55.997Z,36.50
2022-08-07T11:03:37.419Z,37.10
2022-08-07T11:06:22.939Z,37.50
2022-08-07T11:09:02.659Z,37.70
2022-08-07T11:11:35.858Z,37.60
2022-08-07T11:14:45.906Z,37.20
2022-08-07T11:17:09.188Z,37.60
2022-08-07T11:19:43.477Z,37.30
2022-08-07T11:22:32.237Z,38.00
2022-08-07T11:25:15.376Z,37.60
2022-08-07T11:28:02.925Z,37.50
2022-08-07T11:30:42.694Z,37.30
2022-08-07T11:33:53.860Z,37.90
2022-08-07T11:36:30.963Z,37.50
2022-08-07T11:39:09.328Z,37.40
2022-08-07T11:42:02.051Z,35.10
2022-08-07T11:44:52.416Z,37.00
2022-08-07T11:48:18.063Z,35.20
2022-08-07T11:51:10.028Z,35.00
2022-08-07T11:54:00.559Z,36.50
2022-08-07T11:56:53.061Z,36.30
2022-08-07T12:00:11.412Z,34.30
2022-08-07T12:03:07.941Z,35.20
2022-08-07T12:06:37.801Z,35.30
2022-08-07T12:09:07.390Z,35.30
2022-08-07T12:12:08.794Z,35.40
2022-08-07T12:14:32.089Z,34.40
2022-08-07T12:17:08.655Z,35.40
2022-08-07T12:20:03.322Z,35.50
2022-08-07T12:22:56.219Z,36.00
2022-08-07T12:26:02.999Z,34.20
2022-08-07T12:28:53.330Z,35.00
2022-08-07T12:31:53.303Z,33.70
2022-08-07T12:34:25.884Z,34.50
2022-08-07T12:36:55.589Z,33.50
2022-08-07T12:39:43.905Z,32.20
2022-08-07T12:42:18.744Z,32.10
2022-08-07T12:44:57.361Z,32.00
2022-08-07T12:47:33.732Z,32.20
2022-08-07T12:50:33.713Z,32.50
2022-08-07T12:54:23.762Z,33.30
2022-08-07T12:56:27.399Z,32.80
2022-08-07T12:58:59.514Z,32.50
2022-08-07T13:01:42.946Z,33.00
2022-08-07T13:04:34.164Z,32.20
2022-08-07T13:08:12.229Z,33.00
2022-08-07T13:10:52.003Z,33.10
2022-08-07T13:13:50.107Z,33.10
2022-08-07T13:16:28.069Z,33.50
2022-08-07T13:19:18.233Z,33.20
2022-08-07T13:22:06.139Z,33.50
2022-08-07T13:24:53.882Z,33.00
2022-08-07T13:28:06.309Z,33.10
2022-08-07T13:30:40.981Z,33.40
2022-08-07T13:33:16.374Z,33.80
2022-08-07T13:36:06.665Z,34.40
2022-08-07T13:38:41.909Z,33.40
2022-08-07T13:41:21.641Z,33.40
2022-08-07T13:43:56.151Z,33.30
2022-08-07T13:46:33.791Z,33.60
2022-08-07T13:49:08.724Z,33.00
2022-08-07T13:52:04.520Z,32.90
2022-08-07T13:54:33.558Z,32.20
2022-08-07T13:57:03.808Z,33.50
2022-08-07T13:59:34.511Z,32.40
2022-08-07T14:02:13.164Z,32.90
2022-08-07T14:04:50.118Z,33.30
2022-08-07T14:07:25.591Z,33.90
2022-08-07T14:10:01.210Z,32.50
2022-08-07T14:12:41.619Z,31.60
2022-08-07T14:15:23.782Z,32.70
2022-08-07T14:18:24.468Z,32.90
2022-08-07T14:20:54.389Z,33.50
2022-08-07T14:24:00.910Z,32.90
2022-08-07T14:26:28.045Z,32.30
2022-08-07T14:29:08.555Z,31.70
2022-08-07T14:31:42.298Z,31.90
2022-08-07T14:34:20.231Z,31.70
2022-08-07T14:36:56.353Z,32.20
2022-08-07T14:40:17.170Z,32.70
2022-08-07T14:42:19.688Z,33.10
2022-08-07T14:44:54.635Z,32.40
2022-08-07T14:47:33.767Z,32.60
2022-08-07T14:50:11.372Z,32.60
2022-08-07T14:52:42.615Z,32.60
2022-08-07T14:55:17.519Z,32.30
2022-08-07T14:58:06.269Z,33.00
2022-08-07T15:00:35.802Z,31.00
2022-08-07T15:03:19.519Z,31.30
2022-08-07T15:05:55.169Z,31.10
2022-08-07T15:08:34.830Z,30.30
2022-08-07T15:14:10.734Z,31.10
2022-08-07T15:16:42.657Z,30.90
2022-08-07T15:20:31.216Z,30.80
2022-08-07T15:22:29.102Z,30.10
2022-08-07T15:28:33.124Z,30.90
2022-08-07T15:31:05.218Z,30.50
2022-08-07T15:33:42.674Z,31.10
2022-08-07T15:36:13.457Z,31.00
2022-08-07T15:44:24.032Z,31.00
2022-08-07T15:46:58.709Z,30.40
2022-08-07T15:50:04.840Z,30.30
2022-08-07T15:52:30.491Z,30.00
2022-08-07T15:55:02.663Z,29.90
2022-08-07T15:57:39.994Z,29.80
2022-08-07T16:00:22.762Z,29.30
2022-08-07T16:03:04.681Z,29.10
2022-08-07T16:05:34.061Z,29.60
2022-08-07T16:08:31.292Z,29.90
2022-08-07T16:11:26.214Z,29.70
2022-08-07T16:14:03.239Z,30.00
2022-08-07T16:16:57.539Z,29.90
2022-08-07T16:19:59.686Z,30.10
2022-08-07T16:22:54.265Z,30.90
2022-08-07T16:25:54.070Z,30.40
2022-08-07T16:30:07.878Z,30.40
2022-08-07T16:31:50.392Z,30.70
2022-08-07T16:34:25.191Z,31.00
2022-08-07T16:38:04.730Z,31.20
2022-08-07T16:40:23.448Z,30.70
2022-08-07T16:43:10.036Z,30.90
2022-08-07T16:46:33.016Z,30.70
2022-08-07T16:50:20.353Z,30.40
2022-08-07T16:52:59.682Z,31.00
2022-08-07T16:55:43.737Z,31.00
2022-08-07T16:58:27.467Z,31.20
2022-08-07T17:01:15.684Z,31.20
2022-08-07T17:03:59.842Z,32.20
2022-08-07T17:06:57.986Z,33.80
2022-08-07T17:10:07.887Z,34.00
2022-08-07T17:12:38.812Z,34.10
2022-08-07T17:15:23.245Z,34.50
2022-08-07T17:18:18.357Z,34.40
2022-08-07T17:20:47.665Z,35.00
2022-08-07T17:23:40.991Z,35.30
2022-08-07T17:26:23.571Z,35.30
2022-08-07T17:29:18.328Z,35.40
2022-08-07T17:32:30.548Z,35.50
2022-08-07T17:35:50.458Z,36.20
2022-08-07T17:38:05.589Z,36.30
2022-08-07T17:40:50.725Z,36.80
2022-08-07T17:44:01.538Z,36.40
2022-08-07T17:46:22.722Z,36.60
2022-08-07T17:49:24.159Z,37.00
2022-08-07T17:52:00.583Z,37.20
2022-08-07T17:54:53.129Z,37.30
2022-08-07T17:57:55.988Z,37.30
2022-08-07T18:00:33.223Z,37.70
2022-08-07T18:03:11.333Z,37.40
2022-08-07T18:06:01.717Z,37.50
2022-08-07T18:08:34.930Z,38.00
2022-08-07T18:12:06.194Z,38.10
2022-08-07T18:14:06.102Z,37.90
2022-08-07T18:16:59.625Z,38.30
2022-08-07T18:21:09.470Z,38.50
2022-08-07T18:22:33.979Z,38.20
2022-08-07T18:25:19.421Z,38.10
2022-08-07T18:28:34.460Z,38.30
2022-08-07T18:31:07.546Z,38.10
2022-08-07T18:34:40.761Z,38.50
2022-08-07T18:37:11.019Z,38.20
2022-08-07T18:40:06.483Z,38.20
2022-08-07T18:42:47.987Z,38.10
2022-08-07T18:45:44.994Z,37.70
2022-08-07T18:50:04.712Z,37.90
2022-08-07T18:52:25.607Z,38.20
2022-08-07T18:54:30.684Z,37.50
2022-08-07T18:57:40.031Z,37.10
2022-08-07T19:00:32.890Z,37.00
2022-08-07T19:03:11.944Z,36.60
2022-08-07T19:06:02.837Z,36.70
2022-08-07T19:08:46.339Z,36.90
2022-08-07T19:11:35.330Z,37.00
2022-08-07T19:14:16.803Z,37.00
2022-08-07T19:17:07.595Z,37.00
2022-08-07T19:19:48.671Z,37.20
2022-08-07T19:22:31.052Z,37.50
2022-08-07T19:25:05.519Z,37.50
2022-08-07T19:28:57.599Z,37.70
2022-08-07T19:31:04.152Z,37.70
2022-08-07T19:33:35.269Z,38.10
2022-08-07T19:36:08.899Z,38.20
2022-08-07T19:38:52.543Z,38.00
2022-08-07T19:41:44.327Z,38.20
2022-08-07T19:44:21.389Z,38.30
2022-08-07T19:46:55.706Z,38.20
2022-08-07T19:49:58.431Z,38.70
2022-08-07T19:52:22.484Z,38.40
2022-08-07T19:54:55.779Z,38.30
2022-08-07T19:58:01.619Z,38.40
2022-08-07T20:00:28.402Z,39.40
2022-08-07T20:03:34.076Z,38.80
2022-08-07T20:06:05.207Z,39.20
2022-08-07T20:08:37.041Z,39.20
2022-08-07T20:11:10.363Z,39.30
2022-08-07T20:13:44.291Z,39.40
2022-08-07T20:16:35.404Z,40.00
2022-08-07T20:19:10.595Z,39.70
2022-08-07T20:21:42.212Z,39.50
2022-08-07T20:24:20.698Z,39.90
2022-08-07T20:26:54.641Z,40.00
2022-08-07T20:29:48.702Z,40.00
2022-08-07T20:32:25.421Z,40.00
2022-08-07T20:34:58.908Z,40.10
2022-08-07T20:37:33.810Z,40.00
2022-08-07T20:40:32.229Z,40.10
2022-08-07T20:42:57.874Z,40.10
2022-08-07T20:45:33.052Z,39.90
2022-08-07T20:48:28.372Z,40.10
2022-08-07T20:51:02.483Z,40.20
2022-08-07T20:54:04.131Z,40.30
2022-08-07T20:56:26.419Z,40.10
2022-08-07T20:58:58.671Z,40.30
2022-08-07T21:01:29.826Z,40.00
2022-08-07T21:04:22.526Z,39.90
2022-08-07T21:06:56.912Z,39.90
2022-08-07T21:09:35.421Z,39.80
2022-08-07T21:12:28.730Z,39.90
2022-08-07T21:14:59.575Z,40.20
2022-08-07T21:18:02.417Z,40.30
2022-08-07T21:20:29.753Z,40.90
2022-08-07T21:23:08.019Z,40.10
2022-08-07T21:25:56.222Z,40.20
2022-08-07T21:28:48.388Z,40.20
2022-08-07T21:31:50.115Z,40.50
2022-08-07T21:34:21.381Z,40.20
2022-08-07T21:37:05.012Z,40.10
2022-08-07T21:39:48.560Z,40.30
2022-08-07T21:42:48.022Z,40.10
2022-08-07T21:46:04.885Z,40.20
2022-08-07T21:48:28.668Z,40.10
2022-08-07T21:51:19.858Z,39.90
2022-08-07T21:53:54.366Z,39.90
2022-08-07T21:56:39.738Z,39.90
2022-08-07T21:59:19.108Z,39.90
2022-08-07T22:02:11.074Z,39.90
2022-08-07T22:04:52.582Z,40.50
2022-08-07T22:07:42.774Z,40.50
2022-08-07T22:10:19.884Z,40.10
2022-08-07T22:12:54.544Z,39.60
2022-08-07T22:16:41.850Z,39.70
2022-08-07T22:18:24.730Z,40.00
2022-08-07T22:21:01.652Z,39.90
2022-08-07T22:23:40.491Z,39.80
2022-08-07T22:26:24.125Z,39.80
2022-08-07T22:29:01.116Z,39.80
2022-08-07T22:31:56.435Z,39.70
2022-08-07T22:34:38.595Z,40.00
2022-08-07T22:37:17.948Z,39.80
2022-08-07T22:39:53.986Z,40.00
2022-08-07T22:42:29.300Z,40.00
2022-08-07T22:45:04.317Z,40.00
2022-08-07T22:48:13.752Z,40.20
2022-08-07T22:51:22.736Z,39.80
2022-08-07T22:54:09.417Z,39.70
2022-08-07T22:56:53.351Z,39.70
2022-08-07T22:59:49.763Z,39.40
2022-08-07T23:02:38.235Z,39.70
2022-08-07T23:06:09.166Z,39.60
2022-08-07T23:08:55.739Z,39.40
2022-08-07T23:11:41.561Z,40.00
2022-08-07T23:14:36.552Z,39.50
2022-08-07T23:17:22.045Z,39.40
2022-08-07T23:20:40.211Z,39.60
2022-08-07T23:24:06.956Z,39.40
2022-08-07T23:26:26.111Z,39.60
2022-08-07T23:29:17.110Z,39.50
2022-08-07T23:34:20.774Z,39.70
2022-08-07T23:35:14.393Z,39.80
2022-08-07T23:38:42.222Z,39.60
2022-08-07T23:41:22.458Z,39.80
2022-08-07T23:44:19.209Z,40.00
2022-08-07T23:47:18.671Z,40.20
2022-08-07T23:50:24.382Z,39.90
2022-08-07T23:53:06.669Z,39.80
2022-08-07T23:55:51.809Z,39.60
2022-08-07T23:58:27.278Z,39.50
